sensor_id;sensor_type;location;lat;lon;timestamp;P1;durP1;ratioP1;P2;durP2;ratioP2
7983;SDS011;4037;47.980;10.172;2023-04-24T00:01:49;2.00;;;1.50;;
7983;SDS011;4037;47.980;10.172;2023-04-24T00:04:16;1.70;;;1.60;;
7983;SDS011;4037;47.980;10.172;2023-04-24T00:06:43;1.73;;;1.63;;
7983;SDS011;4037;47.980;10.172;2023-04-24T00:09:09;1.90;;;1.70;;
7983;SDS011;4037;47.980;10.172;2023-04-24T00:11:35;2.83;;;1.80;;
7983;SDS011;4037;47.980;10.172;2023-04-24T00:14:01;2.57;;;1.60;;
7983;SDS011;4037;47.980;10.172;2023-04-24T00:16:28;1.90;;;1.70;;
7983;SDS011;4037;47.980;10.172;2023-04-24T00:18:54;2.27;;;1.70;;
7983;SDS011;4037;47.980;10.172;2023-04-24T00:21:20;2.10;;;1.90;;
7983;SDS011;4037;47.980;10.172;2023-04-24T00:23:50;4.10;;;1.43;;
7983;SDS011;4037;47.980;10.172;2023-04-24T00:26:16;1.53;;;1.43;;
7983;SDS011;4037;47.980;10.172;2023-04-24T00:28:42;1.77;;;1.67;;
7983;SDS011;4037;47.980;10.172;2023-04-24T00:31:08;2.03;;;1.70;;
7983;SDS011;4037;47.980;10.172;2023-04-24T00:33:34;1.90;;;1.60;;
7983;SDS011;4037;47.980;10.172;2023-04-24T00:36:00;1.77;;;1.57;;
7983;SDS011;4037;47.980;10.172;2023-04-24T00:38:26;1.77;;;1.67;;
7983;SDS011;4037;47.980;10.172;2023-04-24T00:40:52;3.07;;;1.63;;
7983;SDS011;4037;47.980;10.172;2023-04-24T00:43:19;1.97;;;1.77;;
7983;SDS011;4037;47.980;10.172;2023-04-24T00:45:45;1.80;;;1.70;;
7983;SDS011;4037;47.980;10.172;2023-04-24T00:48:12;2.10;;;1.53;;
7983;SDS011;4037;47.980;10.172;2023-04-24T00:50:38;2.77;;;1.83;;
7983;SDS011;4037;47.980;10.172;2023-04-24T00:53:04;1.97;;;1.70;;
7983;SDS011;4037;47.980;10.172;2023-04-24T00:55:30;1.67;;;1.30;;
7983;SDS011;4037;47.980;10.172;2023-04-24T00:57:56;1.30;;;1.20;;
7983;SDS011;4037;47.980;10.172;2023-04-24T01:00:22;4.33;;;1.80;;
7983;SDS011;4037;47.980;10.172;2023-04-24T01:02:48;1.40;;;1.30;;
7983;SDS011;4037;47.980;10.172;2023-04-24T01:05:16;3.10;;;1.30;;
7983;SDS011;4037;47.980;10.172;2023-04-24T01:07:44;2.07;;;1.60;;
7983;SDS011;4037;47.980;10.172;2023-04-24T01:10:13;1.57;;;1.47;;
7983;SDS011;4037;47.980;10.172;2023-04-24T01:12:39;1.70;;;1.60;;
7983;SDS011;4037;47.980;10.172;2023-04-24T01:15:05;2.23;;;1.80;;
7983;SDS011;4037;47.980;10.172;2023-04-24T01:17:32;1.83;;;1.67;;
7983;SDS011;4037;47.980;10.172;2023-04-24T01:19:58;2.43;;;1.67;;
7983;SDS011;4037;47.980;10.172;2023-04-24T01:22:25;3.03;;;1.70;;
7983;SDS011;4037;47.980;10.172;2023-04-24T01:24:51;2.70;;;1.40;;
7983;SDS011;4037;47.980;10.172;2023-04-24T01:27:18;2.43;;;1.73;;
7983;SDS011;4037;47.980;10.172;2023-04-24T01:29:44;1.63;;;1.47;;
7983;SDS011;4037;47.980;10.172;2023-04-24T01:32:10;1.63;;;1.53;;
7983;SDS011;4037;47.980;10.172;2023-04-24T01:34:37;1.57;;;1.47;;
7983;SDS011;4037;47.980;10.172;2023-04-24T01:37:03;1.93;;;1.57;;
7983;SDS011;4037;47.980;10.172;2023-04-24T01:39:30;1.80;;;1.60;;
7983;SDS011;4037;47.980;10.172;2023-04-24T01:41:56;2.83;;;1.73;;
7983;SDS011;4037;47.980;10.172;2023-04-24T01:44:22;5.43;;;1.80;;
7983;SDS011;4037;47.980;10.172;2023-04-24T01:46:48;2.37;;;2.00;;
7983;SDS011;4037;47.980;10.172;2023-04-24T01:49:15;4.17;;;2.20;;
7983;SDS011;4037;47.980;10.172;2023-04-24T01:51:41;2.33;;;2.13;;
7983;SDS011;4037;47.980;10.172;2023-04-24T01:54:07;2.53;;;2.00;;
7983;SDS011;4037;47.980;10.172;2023-04-24T01:56:33;3.33;;;2.47;;
7983;SDS011;4037;47.980;10.172;2023-04-24T01:59:03;2.30;;;2.10;;
7983;SDS011;4037;47.980;10.172;2023-04-24T02:01:38;3.30;;;1.80;;
7983;SDS011;4037;47.980;10.172;2023-04-24T02:04:05;1.90;;;1.50;;
7983;SDS011;4037;47.980;10.172;2023-04-24T02:06:31;2.93;;;2.13;;
7983;SDS011;4037;47.980;10.172;2023-04-24T02:08:58;3.33;;;2.30;;
7983;SDS011;4037;47.980;10.172;2023-04-24T02:11:24;2.30;;;2.10;;
7983;SDS011;4037;47.980;10.172;2023-04-24T02:13:50;2.20;;;2.00;;
7983;SDS011;4037;47.980;10.172;2023-04-24T02:16:16;3.10;;;1.73;;
7983;SDS011;4037;47.980;10.172;2023-04-24T02:18:42;2.37;;;2.13;;
7983;SDS011;4037;47.980;10.172;2023-04-24T02:21:09;3.47;;;2.00;;
7983;SDS011;4037;47.980;10.172;2023-04-24T02:23:35;2.30;;;2.10;;
7983;SDS011;4037;47.980;10.172;2023-04-24T02:26:01;2.00;;;1.80;;
7983;SDS011;4037;47.980;10.172;2023-04-24T02:28:27;2.43;;;2.10;;
7983;SDS011;4037;47.980;10.172;2023-04-24T02:30:53;2.03;;;1.60;;
7983;SDS011;4037;47.980;10.172;2023-04-24T02:33:19;1.93;;;1.40;;
7983;SDS011;4037;47.980;10.172;2023-04-24T02:35:45;3.23;;;1.60;;
7983;SDS011;4037;47.980;10.172;2023-04-24T02:38:11;2.17;;;1.80;;
7983;SDS011;4037;47.980;10.172;2023-04-24T02:40:37;1.90;;;1.70;;
7983;SDS011;4037;47.980;10.172;2023-04-24T02:43:03;1.83;;;1.57;;
7983;SDS011;4037;47.980;10.172;2023-04-24T02:45:29;1.77;;;1.67;;
7983;SDS011;4037;47.980;10.172;2023-04-24T02:47:55;2.03;;;1.60;;
7983;SDS011;4037;47.980;10.172;2023-04-24T02:50:21;2.70;;;1.80;;
7983;SDS011;4037;47.980;10.172;2023-04-24T02:52:47;1.90;;;1.70;;
7983;SDS011;4037;47.980;10.172;2023-04-24T02:55:13;1.83;;;1.73;;
7983;SDS011;4037;47.980;10.172;2023-04-24T02:57:39;1.87;;;1.77;;
7983;SDS011;4037;47.980;10.172;2023-04-24T03:00:05;1.50;;;1.40;;
7983;SDS011;4037;47.980;10.172;2023-04-24T03:02:32;2.43;;;1.83;;
7983;SDS011;4037;47.980;10.172;2023-04-24T03:04:58;1.90;;;1.70;;
7983;SDS011;4037;47.980;10.172;2023-04-24T03:07:24;1.80;;;1.70;;
7983;SDS011;4037;47.980;10.172;2023-04-24T03:09:50;2.13;;;1.93;;
7983;SDS011;4037;47.980;10.172;2023-04-24T03:12:16;2.20;;;1.93;;
7983;SDS011;4037;47.980;10.172;2023-04-24T03:14:43;2.13;;;1.90;;
7983;SDS011;4037;47.980;10.172;2023-04-24T03:17:08;1.97;;;1.87;;
7983;SDS011;4037;47.980;10.172;2023-04-24T03:19:35;1.90;;;1.80;;
7983;SDS011;4037;47.980;10.172;2023-04-24T03:22:04;2.17;;;1.83;;
7983;SDS011;4037;47.980;10.172;2023-04-24T03:24:30;1.60;;;1.50;;
7983;SDS011;4037;47.980;10.172;2023-04-24T03:26:56;2.50;;;1.63;;
7983;SDS011;4037;47.980;10.172;2023-04-24T03:29:22;4.00;;;2.10;;
7983;SDS011;4037;47.980;10.172;2023-04-24T03:31:48;2.27;;;1.43;;
7983;SDS011;4037;47.980;10.172;2023-04-24T03:34:14;1.60;;;1.50;;
7983;SDS011;4037;47.980;10.172;2023-04-24T03:36:40;1.40;;;1.30;;
7983;SDS011;4037;47.980;10.172;2023-04-24T03:39:06;1.53;;;1.30;;
7983;SDS011;4037;47.980;10.172;2023-04-24T03:41:32;2.07;;;1.47;;
7983;SDS011;4037;47.980;10.172;2023-04-24T03:43:58;1.50;;;1.40;;
7983;SDS011;4037;47.980;10.172;2023-04-24T03:46:25;1.40;;;1.30;;
7983;SDS011;4037;47.980;10.172;2023-04-24T03:48:51;1.70;;;1.60;;
7983;SDS011;4037;47.980;10.172;2023-04-24T03:51:17;1.83;;;1.60;;
7983;SDS011;4037;47.980;10.172;2023-04-24T03:53:43;2.03;;;1.63;;
7983;SDS011;4037;47.980;10.172;2023-04-24T03:56:09;1.63;;;1.37;;
7983;SDS011;4037;47.980;10.172;2023-04-24T03:58:35;2.23;;;1.83;;
7983;SDS011;4037;47.980;10.172;2023-04-24T04:01:01;1.67;;;1.53;;
7983;SDS011;4037;47.980;10.172;2023-04-24T04:03:27;1.77;;;1.53;;
7983;SDS011;4037;47.980;10.172;2023-04-24T04:05:53;1.70;;;1.60;;
7983;SDS011;4037;47.980;10.172;2023-04-24T04:08:19;1.90;;;1.70;;
7983;SDS011;4037;47.980;10.172;2023-04-24T04:10:45;1.70;;;1.60;;
7983;SDS011;4037;47.980;10.172;2023-04-24T04:13:11;2.37;;;2.17;;
7983;SDS011;4037;47.980;10.172;2023-04-24T04:15:37;2.00;;;1.73;;
7983;SDS011;4037;47.980;10.172;2023-04-24T04:18:03;1.80;;;1.70;;
7983;SDS011;4037;47.980;10.172;2023-04-24T04:20:30;1.50;;;1.40;;
7983;SDS011;4037;47.980;10.172;2023-04-24T04:22:56;2.23;;;1.53;;
7983;SDS011;4037;47.980;10.172;2023-04-24T04:25:22;2.07;;;1.73;;
7983;SDS011;4037;47.980;10.172;2023-04-24T04:27:48;1.80;;;1.70;;
7983;SDS011;4037;47.980;10.172;2023-04-24T04:30:16;1.90;;;1.70;;
7983;SDS011;4037;47.980;10.172;2023-04-24T04:32:43;2.10;;;1.90;;
7983;SDS011;4037;47.980;10.172;2023-04-24T04:35:09;1.70;;;1.60;;
7983;SDS011;4037;47.980;10.172;2023-04-24T04:37:35;1.80;;;1.70;;
7983;SDS011;4037;47.980;10.172;2023-04-24T04:40:01;1.60;;;1.50;;
7983;SDS011;4037;47.980;10.172;2023-04-24T04:42:36;1.73;;;1.60;;
7983;SDS011;4037;47.980;10.172;2023-04-24T04:45:07;1.40;;;1.30;;
7983;SDS011;4037;47.980;10.172;2023-04-24T04:47:34;1.53;;;1.30;;
7983;SDS011;4037;47.980;10.172;2023-04-24T04:50:00;1.57;;;1.10;;
7983;SDS011;4037;47.980;10.172;2023-04-24T04:52:26;1.93;;;1.37;;
7983;SDS011;4037;47.980;10.172;2023-04-24T04:54:52;1.47;;;1.37;;
7983;SDS011;4037;47.980;10.172;2023-04-24T04:57:18;2.07;;;1.40;;
7983;SDS011;4037;47.980;10.172;2023-04-24T04:59:45;1.77;;;1.67;;
7983;SDS011;4037;47.980;10.172;2023-04-24T05:02:11;1.40;;;1.30;;
7983;SDS011;4037;47.980;10.172;2023-04-24T05:04:37;1.20;;;1.10;;
7983;SDS011;4037;47.980;10.172;2023-04-24T05:07:03;1.20;;;1.20;;
7983;SDS011;4037;47.980;10.172;2023-04-24T05:09:30;2.30;;;1.30;;
7983;SDS011;4037;47.980;10.172;2023-04-24T05:11:56;1.60;;;1.10;;
7983;SDS011;4037;47.980;10.172;2023-04-24T05:14:22;1.47;;;1.00;;
7983;SDS011;4037;47.980;10.172;2023-04-24T05:16:48;1.57;;;1.30;;
7983;SDS011;4037;47.980;10.172;2023-04-24T05:19:14;1.10;;;1.00;;
7983;SDS011;4037;47.980;10.172;2023-04-24T05:21:41;1.07;;;1.00;;
7983;SDS011;4037;47.980;10.172;2023-04-24T05:24:07;1.10;;;1.10;;
7983;SDS011;4037;47.980;10.172;2023-04-24T05:26:33;1.30;;;1.20;;
7983;SDS011;4037;47.980;10.172;2023-04-24T05:29:00;1.20;;;1.10;;
7983;SDS011;4037;47.980;10.172;2023-04-24T05:31:27;1.73;;;1.20;;
7983;SDS011;4037;47.980;10.172;2023-04-24T05:33:53;2.03;;;1.00;;
7983;SDS011;4037;47.980;10.172;2023-04-24T05:36:19;1.17;;;1.07;;
7983;SDS011;4037;47.980;10.172;2023-04-24T05:38:45;1.53;;;1.40;;
7983;SDS011;4037;47.980;10.172;2023-04-24T05:41:11;1.20;;;1.10;;
7983;SDS011;4037;47.980;10.172;2023-04-24T05:43:37;1.23;;;1.13;;
7983;SDS011;4037;47.980;10.172;2023-04-24T05:46:03;1.53;;;1.23;;
7983;SDS011;4037;47.980;10.172;2023-04-24T05:48:29;1.50;;;1.40;;
7983;SDS011;4037;47.980;10.172;2023-04-24T05:50:55;1.30;;;1.20;;
7983;SDS011;4037;47.980;10.172;2023-04-24T05:53:21;1.40;;;1.30;;
7983;SDS011;4037;47.980;10.172;2023-04-24T05:55:47;2.43;;;1.17;;
7983;SDS011;4037;47.980;10.172;2023-04-24T05:58:14;1.17;;;1.07;;
7983;SDS011;4037;47.980;10.172;2023-04-24T06:00:40;1.17;;;1.07;;
7983;SDS011;4037;47.980;10.172;2023-04-24T06:03:07;1.10;;;1.10;;
7983;SDS011;4037;47.980;10.172;2023-04-24T06:05:33;1.53;;;1.20;;
7983;SDS011;4037;47.980;10.172;2023-04-24T06:08:00;2.17;;;1.20;;
7983;SDS011;4037;47.980;10.172;2023-04-24T06:10:26;1.03;;;0.93;;
7983;SDS011;4037;47.980;10.172;2023-04-24T06:12:52;1.43;;;1.33;;
7983;SDS011;4037;47.980;10.172;2023-04-24T06:15:21;1.10;;;1.07;;
7983;SDS011;4037;47.980;10.172;2023-04-24T06:17:47;2.00;;;1.27;;
7983;SDS011;4037;47.980;10.172;2023-04-24T06:20:13;1.30;;;1.20;;
7983;SDS011;4037;47.980;10.172;2023-04-24T06:22:39;1.47;;;1.37;;
7983;SDS011;4037;47.980;10.172;2023-04-24T06:25:05;1.20;;;1.10;;
7983;SDS011;4037;47.980;10.172;2023-04-24T06:27:32;1.13;;;1.00;;
7983;SDS011;4037;47.980;10.172;2023-04-24T06:29:58;5.07;;;1.50;;
7983;SDS011;4037;47.980;10.172;2023-04-24T06:32:24;2.60;;;1.30;;
7983;SDS011;4037;47.980;10.172;2023-04-24T06:34:51;1.73;;;1.00;;
7983;SDS011;4037;47.980;10.172;2023-04-24T06:37:18;1.10;;;1.00;;
7983;SDS011;4037;47.980;10.172;2023-04-24T06:39:44;1.23;;;1.13;;
7983;SDS011;4037;47.980;10.172;2023-04-24T06:42:10;1.20;;;1.10;;
7983;SDS011;4037;47.980;10.172;2023-04-24T06:44:36;1.70;;;1.10;;
7983;SDS011;4037;47.980;10.172;2023-04-24T06:47:06;1.33;;;1.03;;
7983;SDS011;4037;47.980;10.172;2023-04-24T06:49:33;1.00;;;1.00;;
7983;SDS011;4037;47.980;10.172;2023-04-24T06:51:59;1.10;;;1.00;;
7983;SDS011;4037;47.980;10.172;2023-04-24T06:54:25;0.77;;;0.77;;
7983;SDS011;4037;47.980;10.172;2023-04-24T06:56:51;1.37;;;0.90;;
7983;SDS011;4037;47.980;10.172;2023-04-24T06:59:18;1.47;;;1.27;;
7983;SDS011;4037;47.980;10.172;2023-04-24T07:01:44;1.23;;;1.13;;
7983;SDS011;4037;47.980;10.172;2023-04-24T07:04:10;1.40;;;1.30;;
7983;SDS011;4037;47.980;10.172;2023-04-24T07:06:37;1.00;;;0.83;;
7983;SDS011;4037;47.980;10.172;2023-04-24T07:09:04;1.10;;;1.00;;
7983;SDS011;4037;47.980;10.172;2023-04-24T07:11:30;1.20;;;1.10;;
7983;SDS011;4037;47.980;10.172;2023-04-24T07:13:56;1.53;;;1.20;;
7983;SDS011;4037;47.980;10.172;2023-04-24T07:16:22;1.20;;;1.20;;
7983;SDS011;4037;47.980;10.172;2023-04-24T07:18:48;1.70;;;1.13;;
7983;SDS011;4037;47.980;10.172;2023-04-24T07:21:14;2.67;;;1.13;;
7983;SDS011;4037;47.980;10.172;2023-04-24T07:23:40;1.23;;;1.13;;
7983;SDS011;4037;47.980;10.172;2023-04-24T07:26:06;1.10;;;1.10;;
7983;SDS011;4037;47.980;10.172;2023-04-24T07:28:42;1.10;;;1.00;;
7983;SDS011;4037;47.980;10.172;2023-04-24T07:31:08;1.33;;;1.10;;
7983;SDS011;4037;47.980;10.172;2023-04-24T07:33:34;1.20;;;1.10;;
7983;SDS011;4037;47.980;10.172;2023-04-24T07:36:01;2.23;;;1.90;;
7983;SDS011;4037;47.980;10.172;2023-04-24T07:38:29;3.00;;;1.57;;
7983;SDS011;4037;47.980;10.172;2023-04-24T07:40:55;1.23;;;1.13;;
7983;SDS011;4037;47.980;10.172;2023-04-24T07:43:21;1.50;;;1.30;;
7983;SDS011;4037;47.980;10.172;2023-04-24T07:45:48;1.67;;;1.57;;
7983;SDS011;4037;47.980;10.172;2023-04-24T07:48:14;1.30;;;1.20;;
7983;SDS011;4037;47.980;10.172;2023-04-24T07:50:42;1.60;;;1.50;;
7983;SDS011;4037;47.980;10.172;2023-04-24T07:53:08;1.40;;;1.30;;
7983;SDS011;4037;47.980;10.172;2023-04-24T07:55:35;2.33;;;1.30;;
7983;SDS011;4037;47.980;10.172;2023-04-24T07:58:01;1.50;;;1.40;;
7983;SDS011;4037;47.980;10.172;2023-04-24T08:00:27;1.33;;;1.03;;
7983;SDS011;4037;47.980;10.172;2023-04-24T08:02:53;1.80;;;1.17;;
7983;SDS011;4037;47.980;10.172;2023-04-24T08:05:19;1.50;;;1.20;;
7983;SDS011;4037;47.980;10.172;2023-04-24T08:07:46;1.43;;;1.33;;
7983;SDS011;4037;47.980;10.172;2023-04-24T08:10:15;1.40;;;1.30;;
7983;SDS011;4037;47.980;10.172;2023-04-24T08:12:41;1.30;;;1.20;;
7983;SDS011;4037;47.980;10.172;2023-04-24T08:15:07;2.83;;;1.40;;
7983;SDS011;4037;47.980;10.172;2023-04-24T08:17:34;1.40;;;1.30;;
7983;SDS011;4037;47.980;10.172;2023-04-24T08:20:00;1.40;;;1.30;;
7983;SDS011;4037;47.980;10.172;2023-04-24T08:22:27;1.60;;;1.50;;
7983;SDS011;4037;47.980;10.172;2023-04-24T08:24:53;2.73;;;1.43;;
7983;SDS011;4037;47.980;10.172;2023-04-24T08:27:20;1.93;;;1.50;;
7983;SDS011;4037;47.980;10.172;2023-04-24T08:29:46;4.73;;;1.50;;
7983;SDS011;4037;47.980;10.172;2023-04-24T08:32:12;2.27;;;1.50;;
7983;SDS011;4037;47.980;10.172;2023-04-24T08:34:38;1.80;;;1.70;;
7983;SDS011;4037;47.980;10.172;2023-04-24T08:37:05;1.90;;;1.63;;
7983;SDS011;4037;47.980;10.172;2023-04-24T08:39:31;1.53;;;1.43;;
7983;SDS011;4037;47.980;10.172;2023-04-24T08:41:56;1.90;;;1.63;;
7983;SDS011;4037;47.980;10.172;2023-04-24T08:44:30;2.10;;;1.67;;
7983;SDS011;4037;47.980;10.172;2023-04-24T08:46:56;1.70;;;1.60;;
7983;SDS011;4037;47.980;10.172;2023-04-24T08:49:22;2.00;;;1.80;;
7983;SDS011;4037;47.980;10.172;2023-04-24T08:51:50;5.17;;;1.73;;
7983;SDS011;4037;47.980;10.172;2023-04-24T08:54:16;2.63;;;1.47;;
7983;SDS011;4037;47.980;10.172;2023-04-24T08:56:43;1.70;;;1.57;;
7983;SDS011;4037;47.980;10.172;2023-04-24T08:59:09;2.43;;;1.83;;
7983;SDS011;4037;47.980;10.172;2023-04-24T09:01:36;1.77;;;1.40;;
7983;SDS011;4037;47.980;10.172;2023-04-24T09:04:04;3.63;;;1.70;;
7983;SDS011;4037;47.980;10.172;2023-04-24T09:06:32;3.20;;;1.93;;
7983;SDS011;4037;47.980;10.172;2023-04-24T09:09:01;2.20;;;1.77;;
7983;SDS011;4037;47.980;10.172;2023-04-24T09:11:28;3.53;;;1.63;;
7983;SDS011;4037;47.980;10.172;2023-04-24T09:13:54;2.60;;;1.60;;
7983;SDS011;4037;47.980;10.172;2023-04-24T09:16:22;1.70;;;1.60;;
7983;SDS011;4037;47.980;10.172;2023-04-24T09:18:49;2.00;;;1.57;;
7983;SDS011;4037;47.980;10.172;2023-04-24T09:21:15;2.90;;;2.00;;
7983;SDS011;4037;47.980;10.172;2023-04-24T09:23:41;2.90;;;1.67;;
7983;SDS011;4037;47.980;10.172;2023-04-24T09:26:08;1.10;;;1.00;;
7983;SDS011;4037;47.980;10.172;2023-04-24T09:28:36;1.00;;;0.90;;
7983;SDS011;4037;47.980;10.172;2023-04-24T09:33:31;1.30;;;1.20;;
7983;SDS011;4037;47.980;10.172;2023-04-24T09:35:57;3.13;;;1.53;;
7983;SDS011;4037;47.980;10.172;2023-04-24T09:38:33;2.77;;;1.80;;
7983;SDS011;4037;47.980;10.172;2023-04-24T09:41:01;2.93;;;1.60;;
7983;SDS011;4037;47.980;10.172;2023-04-24T09:43:28;3.17;;;1.57;;
7983;SDS011;4037;47.980;10.172;2023-04-24T09:45:57;1.70;;;1.40;;
7983;SDS011;4037;47.980;10.172;2023-04-24T09:48:30;1.33;;;1.23;;
7983;SDS011;4037;47.980;10.172;2023-04-24T09:50:56;1.20;;;1.10;;
7983;SDS011;4037;47.980;10.172;2023-04-24T09:53:24;1.37;;;1.17;;
7983;SDS011;4037;47.980;10.172;2023-04-24T09:55:50;1.43;;;1.30;;
7983;SDS011;4037;47.980;10.172;2023-04-24T09:58:18;2.30;;;1.40;;
7983;SDS011;4037;47.980;10.172;2023-04-24T10:00:44;1.80;;;1.40;;
7983;SDS011;4037;47.980;10.172;2023-04-24T10:03:11;1.97;;;1.60;;
7983;SDS011;4037;47.980;10.172;2023-04-24T10:05:37;1.47;;;1.37;;
7983;SDS011;4037;47.980;10.172;2023-04-24T10:08:04;2.03;;;1.80;;
7983;SDS011;4037;47.980;10.172;2023-04-24T10:10:31;1.70;;;1.60;;
7983;SDS011;4037;47.980;10.172;2023-04-24T10:12:58;2.57;;;1.30;;
7983;SDS011;4037;47.980;10.172;2023-04-24T10:15:24;1.37;;;1.27;;
7983;SDS011;4037;47.980;10.172;2023-04-24T10:17:51;1.57;;;1.20;;
7983;SDS011;4037;47.980;10.172;2023-04-24T10:20:27;1.40;;;1.30;;
7983;SDS011;4037;47.980;10.172;2023-04-24T10:22:57;1.47;;;1.37;;
7983;SDS011;4037;47.980;10.172;2023-04-24T10:25:24;1.43;;;1.10;;
7983;SDS011;4037;47.980;10.172;2023-04-24T10:27:51;2.57;;;1.23;;
7983;SDS011;4037;47.980;10.172;2023-04-24T10:30:18;1.30;;;1.20;;
7983;SDS011;4037;47.980;10.172;2023-04-24T10:32:44;2.50;;;1.40;;
7983;SDS011;4037;47.980;10.172;2023-04-24T10:35:14;2.23;;;1.50;;
7983;SDS011;4037;47.980;10.172;2023-04-24T10:37:42;1.37;;;1.27;;
7983;SDS011;4037;47.980;10.172;2023-04-24T10:40:09;3.83;;;2.00;;
7983;SDS011;4037;47.980;10.172;2023-04-24T10:42:35;1.43;;;1.20;;
7983;SDS011;4037;47.980;10.172;2023-04-24T10:45:06;1.50;;;1.20;;
7983;SDS011;4037;47.980;10.172;2023-04-24T10:47:41;2.30;;;1.53;;
7983;SDS011;4037;47.980;10.172;2023-04-24T10:50:10;2.70;;;1.50;;
7983;SDS011;4037;47.980;10.172;2023-04-24T10:52:49;2.13;;;1.93;;
7983;SDS011;4037;47.980;10.172;2023-04-24T10:55:16;2.10;;;1.60;;
7983;SDS011;4037;47.980;10.172;2023-04-24T11:00:28;3.43;;;1.53;;
7983;SDS011;4037;47.980;10.172;2023-04-24T11:02:54;1.40;;;1.30;;
7983;SDS011;4037;47.980;10.172;2023-04-24T11:05:22;1.97;;;1.70;;
7983;SDS011;4037;47.980;10.172;2023-04-24T11:08:09;1.73;;;1.37;;
7983;SDS011;4037;47.980;10.172;2023-04-24T11:10:46;1.70;;;1.57;;
7983;SDS011;4037;47.980;10.172;2023-04-24T11:13:14;1.73;;;1.30;;
7983;SDS011;4037;47.980;10.172;2023-04-24T11:15:41;1.93;;;1.57;;
7983;SDS011;4037;47.980;10.172;2023-04-24T11:18:12;1.70;;;1.47;;
7983;SDS011;4037;47.980;10.172;2023-04-24T11:20:41;3.53;;;1.40;;
7983;SDS011;4037;47.980;10.172;2023-04-24T11:23:07;1.20;;;1.10;;
7983;SDS011;4037;47.980;10.172;2023-04-24T11:25:34;2.43;;;1.20;;
7983;SDS011;4037;47.980;10.172;2023-04-24T11:28:04;1.80;;;1.70;;
7983;SDS011;4037;47.980;10.172;2023-04-24T11:30:31;1.50;;;1.30;;
7983;SDS011;4037;47.980;10.172;2023-04-24T11:33:01;2.10;;;1.60;;
7983;SDS011;4037;47.980;10.172;2023-04-24T11:35:27;1.90;;;1.70;;
7983;SDS011;4037;47.980;10.172;2023-04-24T11:37:55;1.60;;;1.50;;
7983;SDS011;4037;47.980;10.172;2023-04-24T11:40:21;3.07;;;1.47;;
7983;SDS011;4037;47.980;10.172;2023-04-24T11:42:49;1.33;;;1.20;;
7983;SDS011;4037;47.980;10.172;2023-04-24T11:47:41;2.20;;;1.67;;
7983;SDS011;4037;47.980;10.172;2023-04-24T11:50:08;1.93;;;1.30;;
7983;SDS011;4037;47.980;10.172;2023-04-24T11:52:39;1.70;;;1.40;;
7983;SDS011;4037;47.980;10.172;2023-04-24T11:55:12;2.90;;;1.50;;
7983;SDS011;4037;47.980;10.172;2023-04-24T11:57:49;2.60;;;1.40;;
7983;SDS011;4037;47.980;10.172;2023-04-24T12:00:17;1.90;;;1.43;;
7983;SDS011;4037;47.980;10.172;2023-04-24T12:02:43;1.60;;;1.50;;
7983;SDS011;4037;47.980;10.172;2023-04-24T12:05:12;1.90;;;1.43;;
7983;SDS011;4037;47.980;10.172;2023-04-24T12:07:44;2.17;;;1.70;;
7983;SDS011;4037;47.980;10.172;2023-04-24T12:10:10;2.33;;;1.60;;
7983;SDS011;4037;47.980;10.172;2023-04-24T12:12:36;3.57;;;1.30;;
7983;SDS011;4037;47.980;10.172;2023-04-24T12:15:06;1.63;;;1.27;;
7983;SDS011;4037;47.980;10.172;2023-04-24T12:17:33;1.90;;;1.60;;
7983;SDS011;4037;47.980;10.172;2023-04-24T12:20:03;1.43;;;1.20;;
7983;SDS011;4037;47.980;10.172;2023-04-24T12:25:15;4.07;;;1.60;;
7983;SDS011;4037;47.980;10.172;2023-04-24T12:27:43;1.97;;;1.50;;
7983;SDS011;4037;47.980;10.172;2023-04-24T12:30:12;1.87;;;1.43;;
7983;SDS011;4037;47.980;10.172;2023-04-24T12:32:45;1.23;;;1.13;;
7983;SDS011;4037;47.980;10.172;2023-04-24T12:35:11;1.70;;;1.40;;
7983;SDS011;4037;47.980;10.172;2023-04-24T12:37:37;2.60;;;1.33;;
7983;SDS011;4037;47.980;10.172;2023-04-24T12:40:08;2.17;;;1.30;;
7983;SDS011;4037;47.980;10.172;2023-04-24T12:42:35;2.20;;;1.80;;
7983;SDS011;4037;47.980;10.172;2023-04-24T12:45:04;2.00;;;1.40;;
7983;SDS011;4037;47.980;10.172;2023-04-24T12:47:31;1.30;;;1.10;;
7983;SDS011;4037;47.980;10.172;2023-04-24T12:49:57;2.07;;;1.50;;
7983;SDS011;4037;47.980;10.172;2023-04-24T12:52:24;2.50;;;1.33;;
7983;SDS011;4037;47.980;10.172;2023-04-24T12:54:52;2.13;;;1.43;;
7983;SDS011;4037;47.980;10.172;2023-04-24T12:57:19;2.47;;;1.60;;
7983;SDS011;4037;47.980;10.172;2023-04-24T12:59:45;2.87;;;1.43;;
7983;SDS011;4037;47.980;10.172;2023-04-24T13:02:11;1.53;;;1.40;;
7983;SDS011;4037;47.980;10.172;2023-04-24T13:04:37;2.63;;;1.47;;
7983;SDS011;4037;47.980;10.172;2023-04-24T13:07:04;5.83;;;1.33;;
7983;SDS011;4037;47.980;10.172;2023-04-24T13:09:30;2.23;;;1.40;;
7983;SDS011;4037;47.980;10.172;2023-04-24T13:11:56;1.77;;;1.60;;
7983;SDS011;4037;47.980;10.172;2023-04-24T13:14:23;3.33;;;1.77;;
7983;SDS011;4037;47.980;10.172;2023-04-24T13:16:49;1.80;;;1.50;;
7983;SDS011;4037;47.980;10.172;2023-04-24T13:19:15;2.30;;;1.63;;
7983;SDS011;4037;47.980;10.172;2023-04-24T13:21:41;2.90;;;1.87;;
7983;SDS011;4037;47.980;10.172;2023-04-24T13:24:07;3.37;;;1.43;;
7983;SDS011;4037;47.980;10.172;2023-04-24T13:26:33;2.13;;;1.40;;
7983;SDS011;4037;47.980;10.172;2023-04-24T13:28:59;1.63;;;1.50;;
7983;SDS011;4037;47.980;10.172;2023-04-24T13:31:25;1.53;;;1.40;;
7983;SDS011;4037;47.980;10.172;2023-04-24T13:33:51;3.23;;;1.70;;
7983;SDS011;4037;47.980;10.172;2023-04-24T13:36:17;1.73;;;1.20;;
7983;SDS011;4037;47.980;10.172;2023-04-24T13:38:44;2.03;;;1.37;;
7983;SDS011;4037;47.980;10.172;2023-04-24T13:41:10;2.50;;;1.57;;
7983;SDS011;4037;47.980;10.172;2023-04-24T13:43:36;2.80;;;1.50;;
7983;SDS011;4037;47.980;10.172;2023-04-24T13:46:02;2.90;;;1.73;;
7983;SDS011;4037;47.980;10.172;2023-04-24T13:48:28;3.23;;;1.50;;
7983;SDS011;4037;47.980;10.172;2023-04-24T13:50:54;2.33;;;1.50;;
7983;SDS011;4037;47.980;10.172;2023-04-24T13:53:21;2.53;;;1.70;;
7983;SDS011;4037;47.980;10.172;2023-04-24T13:55:47;2.43;;;1.43;;
7983;SDS011;4037;47.980;10.172;2023-04-24T13:58:13;1.40;;;1.30;;
7983;SDS011;4037;47.980;10.172;2023-04-24T14:00:40;3.20;;;1.60;;
7983;SDS011;4037;47.980;10.172;2023-04-24T14:03:06;1.67;;;1.27;;
7983;SDS011;4037;47.980;10.172;2023-04-24T14:05:32;1.87;;;1.43;;
7983;SDS011;4037;47.980;10.172;2023-04-24T14:07:58;2.50;;;1.43;;
7983;SDS011;4037;47.980;10.172;2023-04-24T14:10:24;1.60;;;1.50;;
7983;SDS011;4037;47.980;10.172;2023-04-24T14:12:50;5.67;;;1.40;;
7983;SDS011;4037;47.980;10.172;2023-04-24T14:15:17;1.30;;;1.20;;
7983;SDS011;4037;47.980;10.172;2023-04-24T14:17:43;3.90;;;1.47;;
7983;SDS011;4037;47.980;10.172;2023-04-24T14:20:09;1.50;;;1.40;;
7983;SDS011;4037;47.980;10.172;2023-04-24T14:22:35;1.53;;;1.27;;
7983;SDS011;4037;47.980;10.172;2023-04-24T14:25:01;1.60;;;1.33;;
7983;SDS011;4037;47.980;10.172;2023-04-24T14:27:28;1.83;;;1.33;;
7983;SDS011;4037;47.980;10.172;2023-04-24T14:29:55;1.87;;;1.30;;
7983;SDS011;4037;47.980;10.172;2023-04-24T14:32:21;1.80;;;1.40;;
7983;SDS011;4037;47.980;10.172;2023-04-24T14:34:47;1.93;;;1.73;;
7983;SDS011;4037;47.980;10.172;2023-04-24T14:37:13;1.93;;;1.30;;
7983;SDS011;4037;47.980;10.172;2023-04-24T14:39:39;2.70;;;1.33;;
7983;SDS011;4037;47.980;10.172;2023-04-24T14:42:05;2.00;;;1.47;;
7983;SDS011;4037;47.980;10.172;2023-04-24T14:44:31;1.80;;;1.37;;
7983;SDS011;4037;47.980;10.172;2023-04-24T14:46:58;1.30;;;1.20;;
7983;SDS011;4037;47.980;10.172;2023-04-24T14:49:24;2.13;;;1.30;;
7983;SDS011;4037;47.980;10.172;2023-04-24T14:51:51;1.40;;;1.30;;
7983;SDS011;4037;47.980;10.172;2023-04-24T14:54:17;2.23;;;1.40;;
7983;SDS011;4037;47.980;10.172;2023-04-24T14:56:44;2.07;;;1.07;;
7983;SDS011;4037;47.980;10.172;2023-04-24T14:59:10;1.60;;;1.20;;
7983;SDS011;4037;47.980;10.172;2023-04-24T15:01:36;1.33;;;1.20;;
7983;SDS011;4037;47.980;10.172;2023-04-24T15:04:02;3.00;;;1.20;;
7983;SDS011;4037;47.980;10.172;2023-04-24T15:06:29;1.30;;;1.20;;
7983;SDS011;4037;47.980;10.172;2023-04-24T15:08:56;2.33;;;1.40;;